sensor_id;sensor_type;location;lat;lon;timestamp;temperature;humidity
7498;DHT22;3790;48.806;9.140;2024-03-29T00:02:07;7.10;99.90
7498;DHT22;3790;48.806;9.140;2024-03-29T00:07:08;7.20;99.90
7498;DHT22;3790;48.806;9.140;2024-03-29T00:12:09;7.40;99.90
7498;DHT22;3790;48.806;9.140;2024-03-29T00:17:10;7.70;99.90
7498;DHT22;3790;48.806;9.140;2024-03-29T00:22:10;7.80;99.90
7498;DHT22;3790;48.806;9.140;2024-03-29T00:27:11;8.00;99.90
7498;DHT22;3790;48.806;9.140;2024-03-29T00:32:11;8.00;99.90
7498;DHT22;3790;48.806;9.140;2024-03-29T00:37:12;8.00;99.90
7498;DHT22;3790;48.806;9.140;2024-03-29T00:42:12;8.00;99.90
7498;DHT22;3790;48.806;9.140;2024-03-29T00:47:15;8.20;99.90
7498;DHT22;3790;48.806;9.140;2024-03-29T00:52:16;8.30;99.90
7498;DHT22;3790;48.806;9.140;2024-03-29T00:57:16;8.50;99.90
7498;DHT22;3790;48.806;9.140;2024-03-29T01:02:17;8.70;99.90
7498;DHT22;3790;48.806;9.140;2024-03-29T01:07:17;8.70;99.90
7498;DHT22;3790;48.806;9.140;2024-03-29T01:12:18;8.70;99.90
7498;DHT22;3790;48.806;9.140;2024-03-29T01:17:20;8.70;99.90
7498;DHT22;3790;48.806;9.140;2024-03-29T01:22:20;8.80;99.90
7498;DHT22;3790;48.806;9.140;2024-03-29T01:27:21;8.70;99.90
7498;DHT22;3790;48.806;9.140;2024-03-29T01:32:21;8.80;99.90
7498;DHT22;3790;48.806;9.140;2024-03-29T01:37:22;8.90;99.90
7498;DHT22;3790;48.806;9.140;2024-03-29T01:42:23;8.80;99.90
7498;DHT22;3790;48.806;9.140;2024-03-29T01:47:23;8.80;99.90
7498;DHT22;3790;48.806;9.140;2024-03-29T01:52:24;8.80;99.90
7498;DHT22;3790;48.806;9.140;2024-03-29T01:57:25;8.70;99.90
7498;DHT22;3790;48.806;9.140;2024-03-29T02:02:26;8.60;99.90
7498;DHT22;3790;48.806;9.140;2024-03-29T02:07:27;8.80;99.90
7498;DHT22;3790;48.806;9.140;2024-03-29T02:12:28;8.70;99.90
7498;DHT22;3790;48.806;9.140;2024-03-29T02:17:29;8.60;99.90
7498;DHT22;3790;48.806;9.140;2024-03-29T02:22:30;8.50;99.90
7498;DHT22;3790;48.806;9.140;2024-03-29T02:27:31;8.60;99.90
7498;DHT22;3790;48.806;9.140;2024-03-29T02:32:32;8.70;99.90
7498;DHT22;3790;48.806;9.140;2024-03-29T02:37:33;8.80;99.90
7498;DHT22;3790;48.806;9.140;2024-03-29T02:42:33;8.90;99.90
7498;DHT22;3790;48.806;9.140;2024-03-29T02:47:34;9.00;99.90
7498;DHT22;3790;48.806;9.140;2024-03-29T02:52:34;9.00;99.90
7498;DHT22;3790;48.806;9.140;2024-03-29T02:57:35;9.10;99.90
7498;DHT22;3790;48.806;9.140;2024-03-29T03:02:38;9.20;99.90
7498;DHT22;3790;48.806;9.140;2024-03-29T03:07:39;9.20;99.90
7498;DHT22;3790;48.806;9.140;2024-03-29T03:12:58;9.20;99.90
7498;DHT22;3790;48.806;9.140;2024-03-29T03:17:59;9.10;99.90
7498;DHT22;3790;48.806;9.140;2024-03-29T03:22:59;9.20;99.90
7498;DHT22;3790;48.806;9.140;2024-03-29T03:28:00;9.20;99.90
7498;DHT22;3790;48.806;9.140;2024-03-29T03:33:00;9.20;99.90
7498;DHT22;3790;48.806;9.140;2024-03-29T03:38:01;9.10;99.90
7498;DHT22;3790;48.806;9.140;2024-03-29T03:43:02;9.20;99.90
7498;DHT22;3790;48.806;9.140;2024-03-29T03:48:04;9.20;99.90
7498;DHT22;3790;48.806;9.140;2024-03-29T03:53:05;9.20;99.90
7498;DHT22;3790;48.806;9.140;2024-03-29T03:58:05;8.90;99.90
7498;DHT22;3790;48.806;9.140;2024-03-29T04:03:06;8.90;99.90
7498;DHT22;3790;48.806;9.140;2024-03-29T04:08:06;9.20;99.90
7498;DHT22;3790;48.806;9.140;2024-03-29T04:13:07;9.40;99.90
7498;DHT22;3790;48.806;9.140;2024-03-29T04:18:07;9.60;99.90
7498;DHT22;3790;48.806;9.140;2024-03-29T04:23:08;9.60;99.90
7498;DHT22;3790;48.806;9.140;2024-03-29T04:28:08;9.60;99.90
7498;DHT22;3790;48.806;9.140;2024-03-29T04:33:09;9.70;99.90
7498;DHT22;3790;48.806;9.140;2024-03-29T04:38:09;9.70;99.90
7498;DHT22;3790;48.806;9.140;2024-03-29T04:43:10;9.70;99.90
7498;DHT22;3790;48.806;9.140;2024-03-29T04:48:11;9.60;99.90
7498;DHT22;3790;48.806;9.140;2024-03-29T04:53:12;9.30;99.90
7498;DHT22;3790;48.806;9.140;2024-03-29T04:58:12;9.30;99.90
7498;DHT22;3790;48.806;9.140;2024-03-29T05:03:13;9.40;99.90
7498;DHT22;3790;48.806;9.140;2024-03-29T05:08:13;9.60;99.90
7498;DHT22;3790;48.806;9.140;2024-03-29T05:13:14;9.60;99.90
7498;DHT22;3790;48.806;9.140;2024-03-29T05:18:14;9.60;99.90
7498;DHT22;3790;48.806;9.140;2024-03-29T05:23:15;9.80;99.90
7498;DHT22;3790;48.806;9.140;2024-03-29T05:28:16;10.00;99.90
7498;DHT22;3790;48.806;9.140;2024-03-29T05:33:17;9.80;99.90
7498;DHT22;3790;48.806;9.140;2024-03-29T05:38:17;9.80;99.90
7498;DHT22;3790;48.806;9.140;2024-03-29T05:43:18;9.90;99.90
7498;DHT22;3790;48.806;9.140;2024-03-29T05:48:18;9.80;99.90
7498;DHT22;3790;48.806;9.140;2024-03-29T05:53:19;10.00;99.90
7498;DHT22;3790;48.806;9.140;2024-03-29T05:58:20;10.10;99.90
7498;DHT22;3790;48.806;9.140;2024-03-29T06:03:21;10.20;99.90
7498;DHT22;3790;48.806;9.140;2024-03-29T06:08:22;10.30;99.90
7498;DHT22;3790;48.806;9.140;2024-03-29T06:13:24;10.30;99.90
7498;DHT22;3790;48.806;9.140;2024-03-29T06:18:50;10.50;99.90
7498;DHT22;3790;48.806;9.140;2024-03-29T06:23:51;10.60;99.90
7498;DHT22;3790;48.806;9.140;2024-03-29T06:28:51;10.80;99.90
7498;DHT22;3790;48.806;9.140;2024-03-29T06:33:52;11.00;99.90
7498;DHT22;3790;48.806;9.140;2024-03-29T06:38:54;11.20;99.90
7498;DHT22;3790;48.806;9.140;2024-03-29T06:43:55;11.30;99.90
7498;DHT22;3790;48.806;9.140;2024-03-29T06:48:55;11.40;99.90
7498;DHT22;3790;48.806;9.140;2024-03-29T06:53:56;11.50;99.90
7498;DHT22;3790;48.806;9.140;2024-03-29T06:58:56;11.60;99.90
7498;DHT22;3790;48.806;9.140;2024-03-29T07:03:57;11.80;99.90
7498;DHT22;3790;48.806;9.140;2024-03-29T07:08:57;11.90;99.90
7498;DHT22;3790;48.806;9.140;2024-03-29T07:13:58;12.10;99.90
7498;DHT22;3790;48.806;9.140;2024-03-29T07:18:58;12.20;99.90
7498;DHT22;3790;48.806;9.140;2024-03-29T07:23:59;12.20;99.90
7498;DHT22;3790;48.806;9.140;2024-03-29T07:28:59;12.00;99.90
7498;DHT22;3790;48.806;9.140;2024-03-29T07:34:00;11.90;99.90
7498;DHT22;3790;48.806;9.140;2024-03-29T07:39:01;11.60;99.90
7498;DHT22;3790;48.806;9.140;2024-03-29T07:44:02;10.90;99.90
7498;DHT22;3790;48.806;9.140;2024-03-29T07:49:06;10.00;99.90
7498;DHT22;3790;48.806;9.140;2024-03-29T07:54:08;9.60;99.90
7498;DHT22;3790;48.806;9.140;2024-03-29T07:59:08;9.30;99.90
7498;DHT22;3790;48.806;9.140;2024-03-29T08:04:09;9.00;99.90
7498;DHT22;3790;48.806;9.140;2024-03-29T08:09:09;8.90;99.90
7498;DHT22;3790;48.806;9.140;2024-03-29T08:14:10;8.90;99.90
7498;DHT22;3790;48.806;9.140;2024-03-29T08:19:11;8.80;99.90
7498;DHT22;3790;48.806;9.140;2024-03-29T08:24:11;8.90;99.90
7498;DHT22;3790;48.806;9.140;2024-03-29T08:29:12;9.00;99.90
7498;DHT22;3790;48.806;9.140;2024-03-29T08:34:12;8.90;99.90
7498;DHT22;3790;48.806;9.140;2024-03-29T08:39:14;8.90;99.90
7498;DHT22;3790;48.806;9.140;2024-03-29T08:44:15;8.80;99.90
7498;DHT22;3790;48.806;9.140;2024-03-29T08:49:15;9.00;99.90
7498;DHT22;3790;48.806;9.140;2024-03-29T08:54:16;9.10;99.90
7498;DHT22;3790;48.806;9.140;2024-03-29T08:59:16;9.20;99.90
7498;DHT22;3790;48.806;9.140;2024-03-29T09:04:18;9.70;99.90
7498;DHT22;3790;48.806;9.140;2024-03-29T09:09:20;10.30;99.90
7498;DHT22;3790;48.806;9.140;2024-03-29T09:14:21;10.70;99.90
7498;DHT22;3790;48.806;9.140;2024-03-29T09:19:21;11.00;99.90
7498;DHT22;3790;48.806;9.140;2024-03-29T09:24:22;11.40;99.90
7498;DHT22;3790;48.806;9.140;2024-03-29T09:29:23;11.30;99.90
7498;DHT22;3790;48.806;9.140;2024-03-29T09:34:23;11.30;99.90
7498;DHT22;3790;48.806;9.140;2024-03-29T09:39:24;10.60;99.90
7498;DHT22;3790;48.806;9.140;2024-03-29T09:44:26;10.50;99.90
7498;DHT22;3790;48.806;9.140;2024-03-29T09:49:31;10.70;99.90
7498;DHT22;3790;48.806;9.140;2024-03-29T09:54:32;10.70;99.90
7498;DHT22;3790;48.806;9.140;2024-03-29T09:59:33;10.80;99.90
7498;DHT22;3790;48.806;9.140;2024-03-29T10:04:35;11.20;99.90
7498;DHT22;3790;48.806;9.140;2024-03-29T10:09:36;11.40;99.90
7498;DHT22;3790;48.806;9.140;2024-03-29T10:14:47;11.50;99.90
7498;DHT22;3790;48.806;9.140;2024-03-29T10:20:02;11.40;99.90
7498;DHT22;3790;48.806;9.140;2024-03-29T10:25:05;11.50;99.90
7498;DHT22;3790;48.806;9.140;2024-03-29T10:30:10;11.80;99.90
7498;DHT22;3790;48.806;9.140;2024-03-29T10:35:11;12.00;99.90
7498;DHT22;3790;48.806;9.140;2024-03-29T10:40:11;12.20;99.90
7498;DHT22;3790;48.806;9.140;2024-03-29T10:45:16;12.10;99.90
7498;DHT22;3790;48.806;9.140;2024-03-29T10:50:17;12.20;99.90
7498;DHT22;3790;48.806;9.140;2024-03-29T10:55:20;12.30;99.90
7498;DHT22;3790;48.806;9.140;2024-03-29T11:00:22;12.70;99.90
7498;DHT22;3790;48.806;9.140;2024-03-29T11:05:23;12.90;99.90
7498;DHT22;3790;48.806;9.140;2024-03-29T11:10:29;13.20;99.90
7498;DHT22;3790;48.806;9.140;2024-03-29T11:15:31;13.50;99.90
7498;DHT22;3790;48.806;9.140;2024-03-29T11:20:34;13.70;99.90
7498;DHT22;3790;48.806;9.140;2024-03-29T11:25:58;14.20;99.90
7498;DHT22;3790;48.806;9.140;2024-03-29T11:31:14;14.70;99.90
7498;DHT22;3790;48.806;9.140;2024-03-29T11:41:20;14.80;99.90
7498;DHT22;3790;48.806;9.140;2024-03-29T11:46:25;14.70;99.90
7498;DHT22;3790;48.806;9.140;2024-03-29T11:51:25;14.60;99.90
7498;DHT22;3790;48.806;9.140;2024-03-29T11:56:26;14.60;99.90
7498;DHT22;3790;48.806;9.140;2024-03-29T12:01:27;14.50;99.90
7498;DHT22;3790;48.806;9.140;2024-03-29T12:06:29;14.40;99.90
7498;DHT22;3790;48.806;9.140;2024-03-29T12:11:31;14.10;99.90
7498;DHT22;3790;48.806;9.140;2024-03-29T12:16:42;14.10;99.90
7498;DHT22;3790;48.806;9.140;2024-03-29T12:21:43;14.20;99.90
7498;DHT22;3790;48.806;9.140;2024-03-29T12:26:44;14.40;99.90
7498;DHT22;3790;48.806;9.140;2024-03-29T12:31:45;14.80;99.90
7498;DHT22;3790;48.806;9.140;2024-03-29T12:36:57;15.20;99.90
7498;DHT22;3790;48.806;9.140;2024-03-29T12:41:59;15.40;99.90
7498;DHT22;3790;48.806;9.140;2024-03-29T12:47:01;15.50;99.90
7498;DHT22;3790;48.806;9.140;2024-03-29T12:52:01;15.90;99.90
7498;DHT22;3790;48.806;9.140;2024-03-29T12:57:02;16.00;99.90
7498;DHT22;3790;48.806;9.140;2024-03-29T13:02:03;16.20;99.90
7498;DHT22;3790;48.806;9.140;2024-03-29T13:07:04;16.40;99.90
7498;DHT22;3790;48.806;9.140;2024-03-29T13:12:05;16.60;99.90
7498;DHT22;3790;48.806;9.140;2024-03-29T13:17:06;16.30;99.90
7498;DHT22;3790;48.806;9.140;2024-03-29T13:22:06;16.70;99.90
7498;DHT22;3790;48.806;9.140;2024-03-29T13:27:07;17.40;99.90
7498;DHT22;3790;48.806;9.140;2024-03-29T13:32:08;17.80;99.90
7498;DHT22;3790;48.806;9.140;2024-03-29T13:37:08;17.70;99.90
7498;DHT22;3790;48.806;9.140;2024-03-29T13:42:09;17.80;99.90
7498;DHT22;3790;48.806;9.140;2024-03-29T13:47:09;17.80;99.90
7498;DHT22;3790;48.806;9.140;2024-03-29T13:52:16;17.80;99.90
7498;DHT22;3790;48.806;9.140;2024-03-29T13:57:17;17.70;99.90
7498;DHT22;3790;48.806;9.140;2024-03-29T14:02:19;17.80;99.90
7498;DHT22;3790;48.806;9.140;2024-03-29T14:07:20;17.80;99.90
7498;DHT22;3790;48.806;9.140;2024-03-29T14:12:21;18.10;99.90
7498;DHT22;3790;48.806;9.140;2024-03-29T14:17:23;18.20;99.90
7498;DHT22;3790;48.806;9.140;2024-03-29T14:22:25;18.20;99.90
7498;DHT22;3790;48.806;9.140;2024-03-29T14:27:26;18.30;99.90
7498;DHT22;3790;48.806;9.140;2024-03-29T14:32:27;18.40;99.90
7498;DHT22;3790;48.806;9.140;2024-03-29T14:37:28;18.20;99.90
7498;DHT22;3790;48.806;9.140;2024-03-29T14:42:28;18.20;99.90
7498;DHT22;3790;48.806;9.140;2024-03-29T14:47:29;18.20;99.90
7498;DHT22;3790;48.806;9.140;2024-03-29T14:52:30;18.20;99.90
7498;DHT22;3790;48.806;9.140;2024-03-29T14:57:30;18.20;99.90
7498;DHT22;3790;48.806;9.140;2024-03-29T15:02:31;18.20;99.90
7498;DHT22;3790;48.806;9.140;2024-03-29T15:07:33;18.10;99.90
7498;DHT22;3790;48.806;9.140;2024-03-29T15:12:33;18.10;99.90
7498;DHT22;3790;48.806;9.140;2024-03-29T15:17:34;18.10;99.90
7498;DHT22;3790;48.806;9.140;2024-03-29T15:22:36;18.10;99.90
7498;DHT22;3790;48.806;9.140;2024-03-29T15:27:37;18.30;99.90
7498;DHT22;3790;48.806;9.140;2024-03-29T15:32:56;18.40;99.90
7498;DHT22;3790;48.806;9.140;2024-03-29T15:37:56;18.40;99.90
7498;DHT22;3790;48.806;9.140;2024-03-29T15:42:58;18.50;99.90
7498;DHT22;3790;48.806;9.140;2024-03-29T15:47:58;18.50;99.90
7498;DHT22;3790;48.806;9.140;2024-03-29T15:52:59;18.20;99.90
7498;DHT22;3790;48.806;9.140;2024-03-29T15:57:59;18.10;99.90
7498;DHT22;3790;48.806;9.140;2024-03-29T16:03:00;17.90;99.90
7498;DHT22;3790;48.806;9.140;2024-03-29T16:08:03;17.90;99.90
7498;DHT22;3790;48.806;9.140;2024-03-29T16:13:04;18.10;99.90
7498;DHT22;3790;48.806;9.140;2024-03-29T16:18:04;18.20;99.90
7498;DHT22;3790;48.806;9.140;2024-03-29T16:23:05;18.00;99.90
7498;DHT22;3790;48.806;9.140;2024-03-29T16:28:05;17.80;99.90
7498;DHT22;3790;48.806;9.140;2024-03-29T16:33:08;17.60;99.90
7498;DHT22;3790;48.806;9.140;2024-03-29T16:38:10;17.40;99.90
7498;DHT22;3790;48.806;9.140;2024-03-29T16:43:10;17.20;99.90
7498;DHT22;3790;48.806;9.140;2024-03-29T16:48:14;17.00;99.90
7498;DHT22;3790;48.806;9.140;2024-03-29T16:53:14;16.70;99.90
7498;DHT22;3790;48.806;9.140;2024-03-29T16:58:15;16.40;99.90
7498;DHT22;3790;48.806;9.140;2024-03-29T17:03:15;16.10;99.90
7498;DHT22;3790;48.806;9.140;2024-03-29T17:08:18;15.90;99.90
7498;DHT22;3790;48.806;9.140;2024-03-29T17:13:19;15.80;99.90
7498;DHT22;3790;48.806;9.140;2024-03-29T17:18:19;15.70;99.90
7498;DHT22;3790;48.806;9.140;2024-03-29T17:23:20;15.50;99.90
7498;DHT22;3790;48.806;9.140;2024-03-29T17:28:20;15.40;99.90
7498;DHT22;3790;48.806;9.140;2024-03-29T17:33:21;15.30;99.90
7498;DHT22;3790;48.806;9.140;2024-03-29T17:38:21;15.20;99.90
7498;DHT22;3790;48.806;9.140;2024-03-29T17:43:22;15.10;99.90
7498;DHT22;3790;48.806;9.140;2024-03-29T17:48:22;14.90;99.90
7498;DHT22;3790;48.806;9.140;2024-03-29T17:53:23;14.70;99.90
7498;DHT22;3790;48.806;9.140;2024-03-29T17:58:26;14.60;99.90
7498;DHT22;3790;48.806;9.140;2024-03-29T18:03:26;14.50;99.90
7498;DHT22;3790;48.806;9.140;2024-03-29T18:08:27;14.40;99.90
7498;DHT22;3790;48.806;9.140;2024-03-29T18:13:28;14.30;99.90
7498;DHT22;3790;48.806;9.140;2024-03-29T18:18:32;14.10;99.90
7498;DHT22;3790;48.806;9.140;2024-03-29T18:23:33;14.10;99.90
7498;DHT22;3790;48.806;9.140;2024-03-29T18:28:35;14.00;99.90
7498;DHT22;3790;48.806;9.140;2024-03-29T18:33:37;14.00;99.90
7498;DHT22;3790;48.806;9.140;2024-03-29T18:38:40;13.90;99.90
7498;DHT22;3790;48.806;9.140;2024-03-29T18:43:41;13.90;99.90
7498;DHT22;3790;48.806;9.140;2024-03-29T18:48:42;13.90;99.90
7498;DHT22;3790;48.806;9.140;2024-03-29T18:53:42;13.70;99.90
7498;DHT22;3790;48.806;9.140;2024-03-29T18:58:44;13.60;99.90
7498;DHT22;3790;48.806;9.140;2024-03-29T19:03:45;13.50;99.90
7498;DHT22;3790;48.806;9.140;2024-03-29T19:08:47;13.30;99.90
7498;DHT22;3790;48.806;9.140;2024-03-29T19:13:47;13.10;99.90
7498;DHT22;3790;48.806;9.140;2024-03-29T19:18:48;12.70;99.90
7498;DHT22;3790;48.806;9.140;2024-03-29T19:23:49;12.50;99.90
7498;DHT22;3790;48.806;9.140;2024-03-29T19:28:50;12.30;99.90
7498;DHT22;3790;48.806;9.140;2024-03-29T19:33:50;12.30;99.90
7498;DHT22;3790;48.806;9.140;2024-03-29T19:38:51;12.10;99.90
7498;DHT22;3790;48.806;9.140;2024-03-29T19:43:54;12.00;99.90
7498;DHT22;3790;48.806;9.140;2024-03-29T19:48:54;12.00;99.90
7498;DHT22;3790;48.806;9.140;2024-03-29T19:53:55;12.00;99.90
7498;DHT22;3790;48.806;9.140;2024-03-29T19:58:55;11.90;99.90
7498;DHT22;3790;48.806;9.140;2024-03-29T20:03:56;11.90;99.90
7498;DHT22;3790;48.806;9.140;2024-03-29T20:08:57;11.90;99.90
7498;DHT22;3790;48.806;9.140;2024-03-29T20:13:57;11.80;99.90
7498;DHT22;3790;48.806;9.140;2024-03-29T20:18:58;11.90;99.90
7498;DHT22;3790;48.806;9.140;2024-03-29T20:24:02;11.70;99.90
7498;DHT22;3790;48.806;9.140;2024-03-29T20:29:02;11.70;99.90
7498;DHT22;3790;48.806;9.140;2024-03-29T20:34:03;11.60;99.90
7498;DHT22;3790;48.806;9.140;2024-03-29T20:39:04;11.60;99.90
7498;DHT22;3790;48.806;9.140;2024-03-29T20:44:04;11.60;99.90
7498;DHT22;3790;48.806;9.140;2024-03-29T20:49:05;11.50;99.90
7498;DHT22;3790;48.806;9.140;2024-03-29T20:54:05;11.30;99.90
7498;DHT22;3790;48.806;9.140;2024-03-29T20:59:06;11.30;99.90
7498;DHT22;3790;48.806;9.140;2024-03-29T21:04:07;11.20;99.90
7498;DHT22;3790;48.806;9.140;2024-03-29T21:09:26;11.20;99.90
7498;DHT22;3790;48.806;9.140;2024-03-29T21:14:26;11.10;99.90
7498;DHT22;3790;48.806;9.140;2024-03-29T21:19:27;11.10;99.90
7498;DHT22;3790;48.806;9.140;2024-03-29T21:24:28;11.10;99.90
7498;DHT22;3790;48.806;9.140;2024-03-29T21:29:28;11.20;99.90
7498;DHT22;3790;48.806;9.140;2024-03-29T21:34:29;11.20;99.90
7498;DHT22;3790;48.806;9.140;2024-03-29T21:39:29;10.90;99.90
7498;DHT22;3790;48.806;9.140;2024-03-29T21:44:30;10.70;99.90
7498;DHT22;3790;48.806;9.140;2024-03-29T21:49:30;10.70;99.90
7498;DHT22;3790;48.806;9.140;2024-03-29T21:54:31;10.80;99.90
7498;DHT22;3790;48.806;9.140;2024-03-29T21:59:31;10.90;99.90
7498;DHT22;3790;48.806;9.140;2024-03-29T22:04:33;10.90;99.90
7498;DHT22;3790;48.806;9.140;2024-03-29T22:09:36;10.70;99.90
7498;DHT22;3790;48.806;9.140;2024-03-29T22:14:36;10.50;99.90
7498;DHT22;3790;48.806;9.140;2024-03-29T22:19:37;10.50;99.90
7498;DHT22;3790;48.806;9.140;2024-03-29T22:24:37;10.30;99.90
7498;DHT22;3790;48.806;9.140;2024-03-29T22:29:38;10.20;99.90
7498;DHT22;3790;48.806;9.140;2024-03-29T22:34:40;10.30;99.90
7498;DHT22;3790;48.806;9.140;2024-03-29T22:39:40;10.40;99.90
7498;DHT22;3790;48.806;9.140;2024-03-29T22:44:41;10.30;99.90
7498;DHT22;3790;48.806;9.140;2024-03-29T22:49:42;10.50;99.90
7498;DHT22;3790;48.806;9.140;2024-03-29T22:54:42;10.60;99.90
7498;DHT22;3790;48.806;9.140;2024-03-29T22:59:43;10.30;99.90
7498;DHT22;3790;48.806;9.140;2024-03-29T23:04:43;10.30;99.90
7498;DHT22;3790;48.806;9.140;2024-03-29T23:09:44;10.50;99.90
7498;DHT22;3790;48.806;9.140;2024-03-29T23:14:45;10.40;99.90
7498;DHT22;3790;48.806;9.140;2024-03-29T23:19:45;10.20;99.90
7498;DHT22;3790;48.806;9.140;2024-03-29T23:24:45;10.10;99.90
7498;DHT22;3790;48.806;9.140;2024-03-29T23:29:46;10.20;99.90
7498;DHT22;3790;48.806;9.140;2024-03-29T23:34:48;10.40;99.90
7498;DHT22;3790;48.806;9.140;2024-03-29T23:39:48;10.40;99.90
7498;DHT22;3790;48.806;9.140;2024-03-29T23:44:50;10.20;99.90
7498;DHT22;3790;48.806;9.140;2024-03-29T23:49:51;9.80;99.90
7498;DHT22;3790;48.806;9.140;2024-03-29T23:55:00;9.70;99.90
